Time;durP1;ratioP1;P1;durP2;ratioP2;P2;SDS_P1;SDS_P2;PMS_P1;PMS_P2;Temp;Humidity;BMP_temperature;BMP_pressure;BME280_temperature;BME280_humidity;BME280_pressure;Samples;Min_cycle;Max_cycle;Signal;HPM_P1;HPM_P2
2023/07/09 00:02:24;;;;;;;13.23;8.02;;;24.00;97.60;;;;;;5098840;28;20243;-77
2023/07/09 00:04:50;;;;;;;11.00;8.35;;;24.00;97.70;;;;;;5120142;28;20192;-76
2023/07/09 00:07:18;;;;;;;15.13;8.68;;;24.00;97.80;;;;;;5120849;28;20186;-76
2023/07/09 00:09:45;;;;;;;10.90;7.95;;;23.90;97.90;;;;;;5107161;28;20202;-76
2023/07/09 00:12:16;;;;;;;13.75;8.57;;;23.90;98.00;;;;;;5116893;28;20186;-76
2023/07/09 00:14:42;;;;;;;14.63;9.13;;;23.90;98.10;;;;;;5115505;28;20201;-77
2023/07/09 00:17:11;;;;;;;18.15;9.18;;;23.90;98.30;;;;;;5103189;28;20182;-79
2023/07/09 00:19:37;;;;;;;14.18;8.43;;;23.90;98.40;;;;;;5101886;28;20178;-75
2023/07/09 00:22:04;;;;;;;14.88;8.65;;;23.80;98.50;;;;;;5108233;28;20218;-80
2023/07/09 00:24:31;;;;;;;11.80;8.70;;;23.80;98.60;;;;;;5118955;28;20189;-75
2023/07/09 00:26:57;;;;;;;15.30;9.13;;;23.80;98.70;;;;;;5123771;28;20181;-80
2023/07/09 00:29:22;;;;;;;13.05;8.32;;;23.70;98.80;;;;;;5123585;28;20205;-77
2023/07/09 00:31:49;;;;;;;13.05;8.77;;;23.80;98.90;;;;;;5122195;28;20240;-78
2023/07/09 00:34:17;;;;;;;17.00;8.95;;;23.70;98.90;;;;;;5120442;28;20189;-76
2023/07/09 00:36:46;;;;;;;15.35;9.00;;;23.70;99.00;;;;;;5117528;28;20382;-77
2023/07/09 00:39:20;;;;;;;13.13;8.85;;;23.70;99.10;;;;;;5118719;28;20211;-77
2023/07/09 00:41:47;;;;;;;12.13;9.07;;;23.70;99.20;;;;;;5091020;28;20271;-83
2023/07/09 00:44:30;;;;;;;12.43;8.40;;;23.60;99.20;;;;;;5109480;28;20191;-78
2023/07/09 00:47:02;;;;;;;16.27;10.05;;;23.60;99.20;;;;;;5091610;28;20184;-79
2023/07/09 00:49:32;;;;;;;18.13;9.93;;;23.60;99.40;;;;;;5106781;28;20213;-76
2023/07/09 00:52:02;;;;;;;14.85;9.52;;;23.50;99.50;;;;;;5106735;28;20178;-76
2023/07/09 00:54:41;;;;;;;17.13;9.55;;;23.50;99.60;;;;;;5092351;28;20189;-76
2023/07/09 00:57:17;;;;;;;15.82;10.15;;;23.40;99.60;;;;;;5096804;28;20211;-76
2023/07/09 00:59:45;;;;;;;12.93;9.32;;;23.40;99.80;;;;;;5112623;28;20184;-78
2023/07/09 01:02:11;;;;;;;13.73;9.50;;;23.40;99.80;;;;;;5101600;28;20181;-77
2023/07/09 01:04:39;;;;;;;14.82;9.88;;;23.40;99.90;;;;;;5100989;28;20189;-76
2023/07/09 01:07:05;;;;;;;13.60;9.30;;;23.30;99.90;;;;;;5100548;28;20295;-75
2023/07/09 01:09:30;;;;;;;14.13;9.48;;;23.30;99.90;;;;;;5107952;28;20342;-77
2023/07/09 01:12:00;;;;;;;12.88;9.25;;;23.30;99.90;;;;;;5093591;28;20242;-78
2023/07/09 01:14:27;;;;;;;13.55;9.35;;;23.20;99.90;;;;;;5112443;28;20184;-75
2023/07/09 01:16:58;;;;;;;14.20;9.63;;;23.20;99.90;;;;;;5109659;28;20189;-77
2023/07/09 01:19:25;;;;;;;13.80;9.35;;;23.20;99.90;;;;;;5110937;28;20199;-76
2023/07/09 01:21:59;;;;;;;11.98;9.27;;;23.20;99.90;;;;;;5109613;28;20554;-76
2023/07/09 01:24:47;;;;;;;15.02;9.98;;;23.20;99.90;;;;;;5100695;28;20174;-75
2023/07/09 01:27:13;;;;;;;15.15;9.65;;;23.20;99.90;;;;;;5099743;28;20222;-81
2023/07/09 01:29:41;;;;;;;15.52;9.82;;;23.20;99.90;;;;;;5100739;28;20206;-75
2023/07/09 01:32:07;;;;;;;16.90;9.32;;;23.20;99.90;;;;;;5107319;28;20641;-77
2023/07/09 01:34:33;;;;;;;20.42;9.57;;;23.20;99.90;;;;;;5092982;28;20207;-77
2023/07/09 01:36:59;;;;;;;18.45;9.82;;;23.20;99.90;;;;;;5108757;28;20216;-76
2023/07/09 01:39:28;;;;;;;13.55;8.88;;;23.20;99.90;;;;;;5112503;28;20204;-78
2023/07/09 01:41:56;;;;;;;13.27;9.85;;;23.20;99.90;;;;;;5109767;28;20590;-78
2023/07/09 01:44:23;;;;;;;14.93;10.27;;;23.20;99.90;;;;;;5100385;28;20239;-78
2023/07/09 01:46:49;;;;;;;13.82;9.82;;;23.10;99.90;;;;;;5093741;28;20209;-78
2023/07/09 01:49:16;;;;;;;13.25;9.88;;;23.10;99.90;;;;;;5110097;28;20205;-77
2023/07/09 01:51:42;;;;;;;19.27;10.20;;;23.10;99.90;;;;;;5110942;28;20184;-76
2023/07/09 01:54:08;;;;;;;13.80;9.95;;;23.10;99.90;;;;;;5110248;28;20268;-77
2023/07/09 01:56:38;;;;;;;17.70;9.80;;;23.00;99.90;;;;;;5111293;28;20277;-77
2023/07/09 01:59:05;;;;;;;12.10;9.88;;;23.00;99.90;;;;;;5089887;28;20556;-78
2023/07/09 02:01:37;;;;;;;15.27;9.80;;;23.00;99.90;;;;;;5091703;28;20267;-77
2023/07/09 02:04:03;;;;;;;15.90;10.13;;;22.90;99.90;;;;;;5094653;28;20194;-79
2023/07/09 02:06:31;;;;;;;16.85;10.38;;;23.00;99.90;;;;;;5103745;28;20583;-76
2023/07/09 02:08:58;;;;;;;16.02;10.00;;;22.90;99.90;;;;;;5096562;28;20258;-77
2023/07/09 02:11:24;;;;;;;14.23;10.15;;;22.90;99.90;;;;;;5112316;28;20197;-78
2023/07/09 02:13:50;;;;;;;16.08;9.93;;;22.90;99.90;;;;;;5113418;28;20595;-76
2023/07/09 02:16:16;;;;;;;14.63;10.40;;;22.80;99.90;;;;;;5113008;28;20192;-79
2023/07/09 02:18:42;;;;;;;16.88;9.80;;;22.80;99.90;;;;;;5105488;28;20192;-76
2023/07/09 02:21:08;;;;;;;14.77;9.48;;;22.80;99.90;;;;;;5115191;27;20189;-76
2023/07/09 02:23:34;;;;;;;16.95;10.35;;;22.80;99.90;;;;;;5086762;28;20181;-77
2023/07/09 02:25:59;;;;;;;17.58;9.70;;;22.80;99.90;;;;;;5114473;28;20211;-79
2023/07/09 02:28:25;;;;;;;13.98;9.52;;;22.80;99.90;;;;;;5112289;28;20651;-78
2023/07/09 02:30:52;;;;;;;14.65;9.77;;;22.80;99.90;;;;;;5096851;28;20316;-77
2023/07/09 02:33:20;;;;;;;19.67;10.10;;;22.80;99.90;;;;;;5100425;28;20186;-77
2023/07/09 02:35:46;;;;;;;17.60;10.15;;;22.70;99.90;;;;;;5076652;28;20185;-77
2023/07/09 02:38:12;;;;;;;15.27;10.10;;;22.70;99.90;;;;;;5107737;28;20193;-76
2023/07/09 02:40:39;;;;;;;13.30;9.77;;;22.70;99.90;;;;;;5114241;28;20176;-77
2023/07/09 02:43:04;;;;;;;13.60;9.63;;;22.70;99.90;;;;;;5084081;28;20276;-79
2023/07/09 02:45:31;;;;;;;14.88;9.95;;;22.60;99.90;;;;;;5087030;28;20268;-78
2023/07/09 02:47:57;;;;;;;19.38;10.13;;;22.60;99.90;;;;;;5099644;27;20196;-79
2023/07/09 02:50:23;;;;;;;14.77;10.10;;;22.60;99.90;;;;;;5102902;28;20225;-78
2023/07/09 02:52:49;;;;;;;19.55;10.50;;;22.60;99.90;;;;;;5099217;28;20194;-76
2023/07/09 02:55:15;;;;;;;14.82;10.10;;;22.60;99.90;;;;;;5110261;28;20193;-79
2023/07/09 02:57:41;;;;;;;15.15;10.32;;;22.60;99.90;;;;;;5103856;28;20178;-77
2023/07/09 03:00:07;;;;;;;18.52;9.85;;;22.50;99.90;;;;;;5094301;28;20610;-78
2023/07/09 03:02:34;;;;;;;16.40;10.50;;;22.50;99.90;;;;;;5100041;28;20207;-77
2023/07/09 03:05:00;;;;;;;17.42;10.10;;;22.50;99.90;;;;;;5109869;28;20185;-77
2023/07/09 03:07:26;;;;;;;13.88;9.50;;;22.50;99.90;;;;;;5094201;28;20235;-77
2023/07/09 03:09:52;;;;;;;17.33;10.32;;;22.40;99.90;;;;;;5094220;28;20571;-78
2023/07/09 03:12:18;;;;;;;15.60;9.68;;;22.50;99.90;;;;;;5098085;28;20720;-77
2023/07/09 03:14:48;;;;;;;17.98;10.32;;;22.50;99.90;;;;;;5102651;28;20206;-78
2023/07/09 03:17:13;;;;;;;16.80;10.38;;;22.40;99.90;;;;;;5076147;28;20237;-77
2023/07/09 03:19:39;;;;;;;17.30;10.57;;;22.30;99.90;;;;;;5095373;28;20201;-77
2023/07/09 03:22:05;;;;;;;17.70;10.55;;;22.30;99.90;;;;;;5091691;28;20281;-77
2023/07/09 03:24:31;;;;;;;17.55;10.43;;;22.40;99.90;;;;;;5059518;28;20181;-78
2023/07/09 03:26:57;;;;;;;16.00;10.55;;;22.30;99.90;;;;;;5094105;28;20193;-77
2023/07/09 03:29:23;;;;;;;15.57;11.20;;;22.30;99.90;;;;;;5092013;28;20217;-78
2023/07/09 03:31:49;;;;;;;17.08;10.93;;;22.30;99.90;;;;;;5093017;28;20573;-77
2023/07/09 03:34:15;;;;;;;16.55;10.70;;;22.30;99.90;;;;;;5112454;28;20173;-77
2023/07/09 03:36:41;;;;;;;19.67;10.85;;;22.20;99.90;;;;;;5095531;28;20207;-81
2023/07/09 03:39:07;;;;;;;19.08;11.23;;;22.20;99.90;;;;;;5102838;28;20289;-78
2023/07/09 03:41:33;;;;;;;15.38;10.27;;;22.20;99.90;;;;;;5113491;28;20311;-77
2023/07/09 03:43:59;;;;;;;17.08;10.50;;;22.20;99.90;;;;;;5095378;28;20299;-77
2023/07/09 03:46:25;;;;;;;15.38;10.80;;;22.20;99.90;;;;;;5093685;28;20645;-77
2023/07/09 03:48:51;;;;;;;15.13;10.65;;;22.10;99.90;;;;;;5100564;28;20669;-77
2023/07/09 03:51:17;;;;;;;18.17;10.73;;;22.10;99.90;;;;;;5097548;28;20554;-77
2023/07/09 03:53:43;;;;;;;17.40;11.02;;;22.10;99.90;;;;;;5111827;28;20192;-78
2023/07/09 03:56:09;;;;;;;16.17;10.65;;;22.10;99.90;;;;;;5113936;28;20170;-77
2023/07/09 03:58:35;;;;;;;16.75;10.63;;;22.00;99.90;;;;;;5112573;28;20188;-77
2023/07/09 04:01:01;;;;;;;14.88;10.75;;;22.10;99.90;;;;;;5113710;28;20264;-77
2023/07/09 04:03:27;;;;;;;15.45;11.20;;;22.10;99.90;;;;;;5111779;28;20723;-76
2023/07/09 04:05:53;;;;;;;15.57;10.60;;;22.00;99.90;;;;;;5095127;28;20641;-75
2023/07/09 04:08:19;;;;;;;17.75;10.10;;;22.00;99.90;;;;;;5112785;28;20676;-76
2023/07/09 04:10:45;;;;;;;16.30;10.55;;;22.00;99.90;;;;;;5113338;28;20217;-76
2023/07/09 04:13:11;;;;;;;13.43;10.35;;;22.00;99.90;;;;;;5108786;28;20184;-77
2023/07/09 04:15:37;;;;;;;16.02;10.52;;;22.00;99.90;;;;;;5100220;28;20188;-78
2023/07/09 04:18:04;;;;;;;16.10;10.13;;;22.00;99.90;;;;;;5093192;28;20182;-77
2023/07/09 04:20:30;;;;;;;15.32;10.45;;;22.00;99.90;;;;;;5092868;28;20585;-76
2023/07/09 04:22:56;;;;;;;15.40;10.07;;;22.00;99.90;;;;;;5101287;28;20188;-77
2023/07/09 04:25:21;;;;;;;17.63;10.60;;;22.00;99.90;;;;;;5113209;28;20170;-76
2023/07/09 04:27:47;;;;;;;18.45;10.20;;;22.00;99.90;;;;;;5106866;28;20366;-77
2023/07/09 04:30:14;;;;;;;19.38;10.32;;;22.00;99.90;;;;;;5113368;28;20225;-75
2023/07/09 04:32:43;;;;;;;13.52;10.30;;;22.00;99.90;;;;;;5111040;28;20196;-78
2023/07/09 04:35:11;;;;;;;16.17;10.27;;;22.00;99.90;;;;;;5103859;28;20183;-76
2023/07/09 04:37:38;;;;;;;16.63;10.55;;;21.90;99.90;;;;;;5112595;28;20184;-76
2023/07/09 04:40:06;;;;;;;20.58;11.32;;;21.90;99.90;;;;;;5112188;28;20185;-76
2023/07/09 04:42:32;;;;;;;15.70;10.70;;;22.00;99.90;;;;;;5109199;28;20189;-76
2023/07/09 04:44:58;;;;;;;17.25;11.32;;;22.00;99.90;;;;;;5106316;28;20212;-77
2023/07/09 04:47:24;;;;;;;17.92;10.48;;;22.00;99.90;;;;;;5106690;28;20605;-77
2023/07/09 04:49:50;;;;;;;17.05;10.38;;;22.00;99.90;;;;;;5091854;28;20217;-77
2023/07/09 04:52:16;;;;;;;15.38;10.45;;;22.00;99.90;;;;;;5096151;28;20268;-77
2023/07/09 04:54:44;;;;;;;15.38;10.40;;;22.00;99.90;;;;;;5103495;28;20715;-77
2023/07/09 04:57:11;;;;;;;17.60;10.52;;;22.00;99.90;;;;;;5094912;28;20190;-77
2023/07/09 04:59:38;;;;;;;13.48;10.70;;;22.00;99.90;;;;;;5113675;28;20188;-77
2023/07/09 05:02:04;;;;;;;17.67;11.25;;;22.10;99.90;;;;;;5102318;28;20185;-77
2023/07/09 05:04:30;;;;;;;15.43;10.55;;;22.10;99.90;;;;;;5104347;28;20177;-77
2023/07/09 05:06:57;;;;;;;16.25;10.27;;;22.10;99.90;;;;;;5111349;28;20176;-78
2023/07/09 05:09:23;;;;;;;16.52;10.00;;;22.10;99.90;;;;;;5094576;28;20217;-78
2023/07/09 05:11:50;;;;;;;18.20;10.20;;;22.10;99.90;;;;;;5093848;28;20193;-79
2023/07/09 05:14:17;;;;;;;14.45;10.15;;;22.20;99.90;;;;;;5104448;28;20177;-77
2023/07/09 05:16:44;;;;;;;15.02;10.18;;;22.20;99.90;;;;;;5111583;28;20663;-78
2023/07/09 05:19:10;;;;;;;17.27;10.20;;;22.20;99.90;;;;;;5099937;28;20194;-78
2023/07/09 05:21:35;;;;;;;14.57;10.32;;;22.20;99.90;;;;;;5094253;28;20223;-77
2023/07/09 05:24:01;;;;;;;16.85;11.35;;;22.20;99.90;;;;;;5094229;28;20665;-79
2023/07/09 05:26:27;;;;;;;16.33;10.07;;;22.30;99.90;;;;;;5093238;28;20178;-78
2023/07/09 05:28:53;;;;;;;14.95;10.18;;;22.30;99.90;;;;;;5107671;28;20209;-78
2023/07/09 05:31:19;;;;;;;15.68;10.15;;;22.40;99.90;;;;;;5095708;28;20226;-77
2023/07/09 05:33:45;;;;;;;16.35;9.75;;;22.40;99.90;;;;;;5101614;28;20211;-80
2023/07/09 05:36:15;;;;;;;18.33;9.93;;;22.50;99.90;;;;;;5102220;28;20186;-77
2023/07/09 05:38:45;;;;;;;14.30;9.73;;;22.50;99.90;;;;;;5109332;28;20273;-78
2023/07/09 05:41:12;;;;;;;15.45;9.80;;;22.60;99.90;;;;;;5113785;28;20177;-81
2023/07/09 05:43:37;;;;;;;14.35;9.50;;;22.60;99.90;;;;;;5102605;28;20185;-76
2023/07/09 05:46:05;;;;;;;13.20;9.32;;;22.70;99.90;;;;;;5094933;28;20349;-76
2023/07/09 05:48:31;;;;;;;14.65;9.77;;;22.70;99.90;;;;;;5116367;28;20181;-75
2023/07/09 05:50:56;;;;;;;14.32;9.40;;;22.80;99.90;;;;;;5117218;28;20693;-76
2023/07/09 05:53:23;;;;;;;16.13;9.88;;;22.80;99.90;;;;;;5116752;28;20185;-76
2023/07/09 05:55:52;;;;;;;14.20;9.10;;;22.90;99.90;;;;;;5116156;28;20185;-76
2023/07/09 05:58:18;;;;;;;17.67;9.43;;;22.90;99.90;;;;;;5105945;28;20186;-77
2023/07/09 06:00:43;;;;;;;12.80;9.50;;;23.00;99.90;;;;;;5097458;28;20189;-76
2023/07/09 06:03:09;;;;;;;15.20;9.63;;;23.10;99.90;;;;;;5103042;28;20189;-76
2023/07/09 06:05:35;;;;;;;16.48;9.40;;;23.20;99.90;;;;;;5110774;28;20181;-76
2023/07/09 06:08:01;;;;;;;18.27;9.52;;;23.20;99.90;;;;;;5112485;28;20570;-76
2023/07/09 06:10:27;;;;;;;16.17;9.95;;;23.30;99.90;;;;;;5110602;28;20209;-81
2023/07/09 06:12:53;;;;;;;16.73;10.07;;;23.30;99.90;;;;;;5100294;28;20552;-76
2023/07/09 06:15:19;;;;;;;19.15;9.52;;;23.30;99.90;;;;;;5100893;28;20174;-77
2023/07/09 06:17:44;;;;;;;13.85;10.07;;;23.40;99.90;;;;;;5098063;28;20186;-77
2023/07/09 06:20:10;;;;;;;15.02;8.95;;;23.40;99.90;;;;;;5099109;28;20277;-76
2023/07/09 06:22:36;;;;;;;15.60;9.40;;;23.50;99.90;;;;;;5109858;28;20209;-76
2023/07/09 06:25:02;;;;;;;13.55;10.38;;;23.50;99.90;;;;;;5116899;28;20302;-76
2023/07/09 06:27:28;;;;;;;13.75;10.00;;;23.50;99.90;;;;;;5116223;28;20533;-75
2023/07/09 06:29:54;;;;;;;12.85;9.02;;;23.60;99.90;;;;;;5098230;28;20665;-76
2023/07/09 06:32:19;;;;;;;17.30;9.77;;;23.60;99.90;;;;;;5117386;28;20162;-74
2023/07/09 06:34:45;;;;;;;17.83;9.82;;;23.70;99.90;;;;;;5117960;28;20169;-75
2023/07/09 06:37:11;;;;;;;18.80;9.68;;;23.70;99.90;;;;;;5118715;28;20173;-77
2023/07/09 06:39:37;;;;;;;13.90;9.55;;;23.80;99.90;;;;;;5118291;28;20189;-74
2023/07/09 06:42:03;;;;;;;17.98;9.63;;;23.80;99.90;;;;;;5101598;28;20193;-76
2023/07/09 06:44:55;;;;;;;13.90;9.07;;;23.90;99.90;;;;;;5095247;28;20190;-75
2023/07/09 06:47:20;;;;;;;13.98;9.00;;;24.00;99.90;;;;;;5103264;28;20702;-76
2023/07/09 06:49:46;;;;;;;16.90;9.73;;;24.10;99.90;;;;;;5120257;28;20660;-75
2023/07/09 06:52:12;;;;;;;17.63;9.77;;;24.20;99.90;;;;;;5123452;28;20289;-75
2023/07/09 06:54:38;;;;;;;16.15;9.73;;;24.30;99.90;;;;;;5120609;28;20246;-74
2023/07/09 06:57:04;;;;;;;15.27;9.20;;;24.30;99.90;;;;;;5122701;28;20188;-76
2023/07/09 06:59:30;;;;;;;17.48;9.75;;;24.40;99.90;;;;;;5118687;28;20601;-76
2023/07/09 07:01:55;;;;;;;14.85;9.20;;;24.50;99.90;;;;;;5118868;28;20721;-76
2023/07/09 07:04:21;;;;;;;14.93;9.23;;;24.60;99.90;;;;;;5115226;28;20184;-76
2023/07/09 07:06:47;;;;;;;14.52;9.38;;;24.60;99.90;;;;;;5109334;28;20235;-76
2023/07/09 07:09:13;;;;;;;17.13;9.07;;;24.70;99.90;;;;;;5111097;28;20556;-78
2023/07/09 07:11:38;;;;;;;21.77;9.38;;;24.80;99.90;;;;;;5109408;28;20708;-76
2023/07/09 07:14:04;;;;;;;14.95;9.25;;;24.80;99.90;;;;;;5110335;28;20722;-78
2023/07/09 07:16:30;;;;;;;13.00;9.18;;;25.00;99.90;;;;;;5108021;28;20645;-76
2023/07/09 07:18:56;;;;;;;15.00;8.88;;;25.10;99.90;;;;;;5101565;28;20271;-76
2023/07/09 07:21:21;;;;;;;18.50;9.52;;;25.20;99.90;;;;;;5083813;28;20280;-76
2023/07/09 07:23:47;;;;;;;17.20;9.00;;;25.30;99.90;;;;;;5094195;28;20186;-75
2023/07/09 07:26:13;;;;;;;15.93;8.90;;;25.40;99.90;;;;;;5109015;28;20181;-74
2023/07/09 07:28:39;;;;;;;14.82;9.77;;;25.40;99.90;;;;;;5114480;28;20177;-75
2023/07/09 07:31:07;;;;;;;13.68;8.65;;;25.60;99.90;;;;;;5100768;28;20563;-76
2023/07/09 07:33:33;;;;;;;15.25;8.65;;;25.60;99.80;;;;;;5109823;28;20181;-75
2023/07/09 07:35:59;;;;;;;15.00;8.60;;;25.80;99.70;;;;;;5107187;28;20192;-78
2023/07/09 07:38:25;;;;;;;12.88;8.60;;;25.90;99.50;;;;;;5107839;28;20186;-79
2023/07/09 07:40:51;;;;;;;15.80;9.00;;;26.00;99.40;;;;;;5109814;28;20522;-76
2023/07/09 07:43:17;;;;;;;16.20;8.77;;;26.10;99.20;;;;;;5099364;28;20185;-75
2023/07/09 07:45:43;;;;;;;16.30;8.70;;;26.20;99.00;;;;;;5094317;28;20634;-75
2023/07/09 07:48:10;;;;;;;13.48;8.60;;;26.30;98.90;;;;;;5110505;28;20181;-75
2023/07/09 07:50:36;;;;;;;13.73;9.05;;;26.40;98.70;;;;;;5112900;28;20201;-76
2023/07/09 07:53:02;;;;;;;15.52;8.30;;;26.50;98.50;;;;;;5112120;28;20547;-76
2023/07/09 07:55:28;;;;;;;14.18;8.82;;;26.50;98.40;;;;;;5102250;28;20181;-76
2023/07/09 07:57:53;;;;;;;12.07;7.88;;;26.50;98.40;;;;;;5102604;28;20169;-76
2023/07/09 08:00:19;;;;;;;19.63;9.32;;;26.60;98.80;;;;;;5095441;28;20195;-78
2023/07/09 08:02:46;;;;;;;16.42;9.00;;;26.70;98.60;;;;;;5100550;28;20196;-76
2023/07/09 08:05:12;;;;;;;14.98;9.43;;;26.80;98.60;;;;;;5099774;28;20182;-77
2023/07/09 08:07:37;;;;;;;13.20;9.35;;;26.90;98.50;;;;;;5099662;28;20196;-76
2023/07/09 08:10:04;;;;;;;16.50;9.15;;;27.00;98.40;;;;;;5107722;28;20213;-82
2023/07/09 08:12:29;;;;;;;17.95;10.25;;;27.00;98.40;;;;;;5073786;28;20213;-75
2023/07/09 08:14:55;;;;;;;21.83;9.23;;;27.20;98.30;;;;;;5105591;28;20209;-78
2023/07/09 08:17:21;;;;;;;14.00;9.07;;;27.20;98.50;;;;;;5092022;28;20197;-78
2023/07/09 08:19:53;;;;;;;17.48;8.65;;;27.40;98.20;;;;;;5112078;28;20181;-76
2023/07/09 08:22:22;;;;;;;17.05;9.88;;;27.50;98.20;;;;;;5104909;28;20226;-76
2023/07/09 08:24:49;;;;;;;14.65;9.05;;;27.60;98.00;;;;;;5105226;28;20538;-77
2023/07/09 08:27:15;;;;;;;12.82;8.68;;;27.70;97.90;;;;;;5112693;28;20268;-81
2023/07/09 08:29:42;;;;;;;14.07;9.05;;;27.80;97.70;;;;;;5111240;28;20323;-75
2023/07/09 08:32:10;;;;;;;17.05;9.02;;;27.90;97.60;;;;;;5111679;28;20204;-77
2023/07/09 08:34:38;;;;;;;15.32;9.88;;;27.90;97.50;;;;;;5105958;28;20207;-75
2023/07/09 08:37:04;;;;;;;15.93;9.68;;;28.00;97.40;;;;;;5109240;28;20189;-75
2023/07/09 08:39:30;;;;;;;13.02;9.23;;;28.10;97.20;;;;;;5096406;28;20189;-76
2023/07/09 08:42:08;;;;;;;17.35;9.07;;;28.20;97.00;;;;;;5088933;28;20189;-75
2023/07/09 08:44:42;;;;;;;16.42;8.73;;;28.30;97.30;;;;;;5107743;28;20184;-75
2023/07/09 08:47:25;;;;;;;17.58;8.77;;;28.40;96.80;;;;;;5106056;28;20168;-75
2023/07/09 08:50:01;;;;;;;14.70;8.77;;;28.50;96.70;;;;;;5113002;28;20208;-75
2023/07/09 08:52:39;;;;;;;18.92;8.73;;;28.60;96.50;;;;;;5112123;28;20190;-75
2023/07/09 08:55:21;;;;;;;16.73;9.45;;;28.70;96.30;;;;;;5111264;28;20673;-77
2023/07/09 08:57:59;;;;;;;18.20;8.45;;;28.80;96.00;;;;;;5112901;28;20180;-76
2023/07/09 09:00:31;;;;;;;19.05;9.27;;;28.90;95.80;;;;;;5109842;28;20226;-76
2023/07/09 09:03:37;;;;;;;14.43;9.23;;;29.10;95.50;;;;;;5112791;28;20705;-78
2023/07/09 09:06:10;;;;;;;17.83;9.98;;;29.30;95.30;;;;;;5106960;28;20220;-76
2023/07/09 09:08:59;;;;;;;15.10;8.68;;;29.40;95.10;;;;;;5109128;28;20271;-75
2023/07/09 09:11:45;;;;;;;18.30;8.75;;;29.50;94.60;;;;;;5109706;28;20648;-76
2023/07/09 09:14:36;;;;;;;16.45;9.45;;;29.70;94.30;;;;;;5101545;28;20658;-76
2023/07/09 09:17:16;;;;;;;19.05;9.48;;;29.80;93.70;;;;;;5103602;28;20251;-76
2023/07/09 09:20:03;;;;;;;17.02;10.02;;;29.80;93.30;;;;;;5108516;28;20636;-78
2023/07/09 09:22:54;;;;;;;20.58;9.65;;;29.90;92.80;;;;;;5107786;28;20224;-77
2023/07/09 09:25:28;;;;;;;17.25;10.38;;;30.00;92.70;;;;;;5097832;28;20173;-76
2023/07/09 09:27:54;;;;;;;18.00;11.57;;;30.00;92.70;;;;;;5101406;28;20647;-85
2023/07/09 09:30:23;;;;;;;18.85;11.85;;;30.10;92.60;;;;;;5094152;28;20267;-77
2023/07/09 09:32:57;;;;;;;20.50;10.43;;;30.20;92.60;;;;;;5109433;28;20180;-76
2023/07/09 09:35:38;;;;;;;20.75;11.32;;;30.20;92.70;;;;;;5108656;28;20660;-76
2023/07/09 09:38:17;;;;;;;16.60;11.88;;;30.30;92.80;;;;;;5109232;28;20640;-75
2023/07/09 09:40:44;;;;;;;15.18;10.25;;;30.40;92.70;;;;;;5107635;28;20183;-80
2023/07/09 09:43:14;;;;;;;19.55;11.35;;;30.40;92.80;;;;;;5095676;28;20181;-77
2023/07/09 09:45:41;;;;;;;15.18;11.43;;;30.40;92.50;;;;;;5103965;28;20626;-77
2023/07/09 09:48:17;;;;;;;17.83;11.18;;;30.50;92.40;;;;;;5107711;28;20184;-77
2023/07/09 09:50:46;;;;;;;19.13;12.20;;;30.50;92.50;;;;;;5107601;28;20295;-77
2023/07/09 09:53:18;;;;;;;20.65;11.93;;;30.60;92.50;;;;;;5103913;28;20743;-77
2023/07/09 09:55:45;;;;;;;19.27;11.43;;;30.60;92.60;;;;;;5095331;28;20182;-80
2023/07/09 09:58:14;;;;;;;21.55;11.70;;;30.80;92.90;;;;;;5107711;28;20177;-83
2023/07/09 10:00:47;;;;;;;18.42;11.68;;;30.80;92.90;;;;;;5107922;28;20191;-77
2023/07/09 10:03:13;;;;;;;20.70;11.35;;;30.80;92.80;;;;;;5108282;28;20782;-79
2023/07/09 10:05:45;;;;;;;19.52;12.05;;;30.90;92.90;;;;;;5095133;28;20212;-76
2023/07/09 10:08:28;;;;;;;20.05;13.25;;;30.90;92.90;;;;;;5109810;28;20181;-79
2023/07/09 10:11:03;;;;;;;17.52;11.65;;;31.00;92.60;;;;;;5105673;28;20286;-76
2023/07/09 10:13:33;;;;;;;23.52;12.77;;;31.00;92.50;;;;;;5108389;28;20268;-79
2023/07/09 10:16:29;;;;;;;18.27;12.23;;;31.00;92.50;;;;;;5114522;28;20177;-77
2023/07/09 10:19:06;;;;;;;17.45;11.43;;;31.00;92.40;;;;;;5115768;28;20264;-76
2023/07/09 10:21:41;;;;;;;20.35;11.32;;;31.10;92.30;;;;;;5114668;28;20187;-78
2023/07/09 10:24:44;;;;;;;19.10;12.13;;;31.10;92.00;;;;;;5111333;28;20180;-78
2023/07/09 10:27:15;;;;;;;15.23;10.88;;;31.10;91.90;;;;;;5030911;28;20277;-77
2023/07/09 10:29:53;;;;;;;24.73;11.15;;;31.20;91.90;;;;;;5114046;28;20287;-79
2023/07/09 10:32:53;;;;;;;20.08;11.13;;;31.30;91.80;;;;;;5104085;28;20303;-81
2023/07/09 10:35:45;;;;;;;14.93;10.93;;;31.40;91.40;;;;;;5089295;28;20197;-79
2023/07/09 10:38:20;;;;;;;13.32;10.13;;;31.50;91.20;;;;;;5095893;28;20207;-84
2023/07/09 10:40:56;;;;;;;19.38;11.95;;;31.50;91.00;;;;;;5101283;28;20362;-78
2023/07/09 10:43:50;;;;;;;44.67;11.48;;;31.50;90.70;;;;;;5109351;28;20182;-79
2023/07/09 10:46:28;;;;;;;19.52;11.00;;;31.50;90.50;;;;;;5106645;28;20242;-78
2023/07/09 10:48:55;;;;;;;16.73;10.30;;;31.60;90.40;;;;;;5107718;28;20191;-78
2023/07/09 10:51:21;;;;;;;17.40;11.00;;;31.60;90.20;;;;;;5103251;28;20272;-79
2023/07/09 10:53:58;;;;;;;20.15;10.38;;;31.70;90.00;;;;;;5107188;28;20263;-79
2023/07/09 10:56:31;;;;;;;20.02;10.30;;;31.80;90.00;;;;;;5094427;28;20615;-79
2023/07/09 10:59:06;;;;;;;16.10;10.32;;;31.80;89.30;;;;;;5103795;28;20589;-79
2023/07/09 11:01:38;;;;;;;20.30;10.98;;;31.70;89.00;;;;;;5106511;28;20253;-76
2023/07/09 11:04:10;;;;;;;18.77;10.73;;;31.70;89.30;;;;;;5113057;28;20189;-76
2023/07/09 11:06:38;;;;;;;18.33;10.75;;;31.80;89.20;;;;;;5114754;28;20505;-76
2023/07/09 11:09:25;;;;;;;17.05;10.63;;;31.90;88.80;;;;;;5108162;28;20185;-76
2023/07/09 11:11:55;;;;;;;18.15;11.15;;;32.00;87.80;;;;;;5102702;28;20325;-77
2023/07/09 11:14:58;;;;;;;20.70;10.52;;;32.00;87.30;;;;;;5102164;28;20180;-76
2023/07/09 11:17:28;;;;;;;15.98;9.40;;;32.00;87.00;;;;;;5103518;28;20267;-79
2023/07/09 11:19:56;;;;;;;14.15;9.20;;;32.10;87.00;;;;;;5106693;28;20218;-77
2023/07/09 11:22:35;;;;;;;15.60;8.63;;;32.20;86.60;;;;;;5099542;28;20291;-77
2023/07/09 11:25:10;;;;;;;14.07;9.18;;;32.20;85.60;;;;;;5094870;28;20227;-76
2023/07/09 11:27:52;;;;;;;11.45;8.55;;;32.30;84.80;;;;;;5113854;28;20172;-77
2023/07/09 11:30:27;;;;;;;14.48;8.55;;;32.30;84.20;;;;;;5113530;28;20748;-76
2023/07/09 11:32:58;;;;;;;17.13;10.82;;;32.40;84.30;;;;;;5092510;28;20215;-81
2023/07/09 11:35:44;;;;;;;16.95;10.20;;;32.40;84.20;;;;;;5101000;28;20259;-77
2023/07/09 11:38:24;;;;;;;25.27;9.63;;;32.40;84.20;;;;;;5108317;28;20172;-78
2023/07/09 11:40:52;;;;;;;16.20;9.82;;;32.40;84.00;;;;;;5111121;28;20184;-76
2023/07/09 11:43:47;;;;;;;16.55;9.30;;;32.40;83.50;;;;;;5105348;28;20190;-77
2023/07/09 11:46:18;;;;;;;16.98;9.85;;;32.40;83.30;;;;;;5075334;28;20181;-76
2023/07/09 11:48:45;;;;;;;14.68;9.30;;;32.50;83.30;;;;;;5106027;28;20231;-77
2023/07/09 11:51:29;;;;;;;20.15;11.15;;;32.50;83.10;;;;;;5112411;28;20329;-78
2023/07/09 11:53:55;;;;;;;14.20;8.80;;;32.60;83.00;;;;;;5104863;28;20180;-78
2023/07/09 11:56:24;;;;;;;14.88;9.65;;;32.60;83.20;;;;;;5108928;28;20185;-77
2023/07/09 11:58:55;;;;;;;15.85;10.07;;;32.60;83.20;;;;;;5108607;28;20242;-77
2023/07/09 12:01:25;;;;;;;14.65;9.13;;;32.70;83.00;;;;;;5112676;28;20220;-77
2023/07/09 12:03:51;;;;;;;17.40;10.20;;;32.70;82.90;;;;;;5109589;28;20176;-76
2023/07/09 12:06:22;;;;;;;11.70;8.60;;;32.70;82.90;;;;;;5102421;28;20178;-77
2023/07/09 12:08:50;;;;;;;16.10;9.13;;;32.70;82.90;;;;;;5095014;28;20193;-77
2023/07/09 12:11:24;;;;;;;20.35;11.80;;;32.70;82.50;;;;;;5098033;28;20825;-75
2023/07/09 12:13:50;;;;;;;17.38;10.30;;;32.70;82.20;;;;;;5107550;28;20181;-76
2023/07/09 12:16:24;;;;;;;16.85;9.45;;;32.80;81.80;;;;;;5095389;28;20322;-76
2023/07/09 12:18:50;;;;;;;14.25;9.52;;;32.80;81.70;;;;;;5093397;28;20663;-77
2023/07/09 12:21:15;;;;;;;12.55;9.35;;;32.90;81.80;;;;;;5096709;28;20181;-76
2023/07/09 12:23:41;;;;;;;18.00;9.68;;;32.90;81.40;;;;;;5109240;28;20172;-76
2023/07/09 12:26:14;;;;;;;15.63;9.15;;;33.00;81.00;;;;;;5091200;28;20184;-79
2023/07/09 12:28:40;;;;;;;15.10;8.90;;;33.00;81.20;;;;;;5092880;28;20187;-77
2023/07/09 12:31:13;;;;;;;13.48;7.55;;;33.10;80.20;;;;;;5096458;28;20232;-75
2023/07/09 12:33:48;;;;;;;13.65;7.55;;;33.10;77.70;;;;;;5101033;28;20193;-75
2023/07/09 12:36:16;;;;;;;10.38;7.05;;;33.20;74.70;;;;;;5091746;28;20267;-77
2023/07/09 12:38:44;;;;;;;12.20;7.45;;;33.10;73.90;;;;;;5112464;28;20279;-77
2023/07/09 12:41:21;;;;;;;14.75;8.00;;;33.10;72.90;;;;;;5109914;28;20268;-77
2023/07/09 12:43:48;;;;;;;13.50;7.78;;;33.10;72.70;;;;;;5111513;28;20188;-76
2023/07/09 12:46:15;;;;;;;11.60;7.07;;;33.20;72.80;;;;;;5111679;28;20189;-77